sensor_id;sensor_type;location;lat;lon;timestamp;pressure;altitude;pressure_sealevel;temperature;humidity
34482;BME280;20720;48.886;9.388;2024-02-28T00:01:32;98352.31;;;10.93;100.00
34482;BME280;20720;48.886;9.388;2024-02-28T00:03:57;98360.81;;;11.74;100.00
34482;BME280;20720;48.886;9.388;2024-02-28T00:06:23;98363.88;;;12.35;100.00
34482;BME280;20720;48.886;9.388;2024-02-28T00:08:48;98360.34;;;11.96;100.00
34482;BME280;20720;48.886;9.388;2024-02-28T00:11:16;98363.66;;;11.72;100.00
34482;BME280;20720;48.886;9.388;2024-02-28T00:13:41;98363.31;;;12.19;100.00
34482;BME280;20720;48.886;9.388;2024-02-28T00:16:06;98363.97;;;12.08;100.00
34482;BME280;20720;48.886;9.388;2024-02-28T00:18:31;98376.31;;;12.14;100.00
34482;BME280;20720;48.886;9.388;2024-02-28T00:20:56;98370.94;;;11.57;100.00
34482;BME280;20720;48.886;9.388;2024-02-28T00:23:22;98376.53;;;12.13;100.00
34482;BME280;20720;48.886;9.388;2024-02-28T00:25:47;98380.66;;;11.76;100.00
34482;BME280;20720;48.886;9.388;2024-02-28T00:28:12;98373.81;;;12.32;100.00
34482;BME280;20720;48.886;9.388;2024-02-28T00:30:37;98372.59;;;12.28;100.00
34482;BME280;20720;48.886;9.388;2024-02-28T00:33:03;98380.44;;;12.48;100.00
34482;BME280;20720;48.886;9.388;2024-02-28T00:35:32;98379.56;;;12.61;100.00
34482;BME280;20720;48.886;9.388;2024-02-28T00:37:58;98372.25;;;12.63;100.00
34482;BME280;20720;48.886;9.388;2024-02-28T00:40:24;98372.63;;;12.73;100.00
34482;BME280;20720;48.886;9.388;2024-02-28T00:42:50;98377.41;;;11.74;100.00
34482;BME280;20720;48.886;9.388;2024-02-28T00:45:16;98382.50;;;12.40;100.00
34482;BME280;20720;48.886;9.388;2024-02-28T00:47:41;98384.44;;;12.64;100.00
34482;BME280;20720;48.886;9.388;2024-02-28T00:50:07;98376.31;;;12.65;100.00
34482;BME280;20720;48.886;9.388;2024-02-28T00:52:32;98377.53;;;12.63;100.00
34482;BME280;20720;48.886;9.388;2024-02-28T00:54:58;98379.31;;;12.69;100.00
34482;BME280;20720;48.886;9.388;2024-02-28T00:57:23;98374.22;;;12.74;100.00
34482;BME280;20720;48.886;9.388;2024-02-28T00:59:49;98375.03;;;12.74;100.00
34482;BME280;20720;48.886;9.388;2024-02-28T01:02:14;98375.47;;;12.71;100.00
34482;BME280;20720;48.886;9.388;2024-02-28T01:04:40;98384.75;;;12.80;100.00
34482;BME280;20720;48.886;9.388;2024-02-28T01:07:06;98377.34;;;12.58;100.00
34482;BME280;20720;48.886;9.388;2024-02-28T01:09:31;98374.91;;;12.18;100.00
34482;BME280;20720;48.886;9.388;2024-02-28T01:11:56;98378.97;;;12.59;100.00
34482;BME280;20720;48.886;9.388;2024-02-28T01:14:22;98380.44;;;12.42;100.00
34482;BME280;20720;48.886;9.388;2024-02-28T01:16:47;98371.03;;;12.65;100.00
34482;BME280;20720;48.886;9.388;2024-02-28T01:19:12;98376.69;;;12.69;100.00
34482;BME280;20720;48.886;9.388;2024-02-28T01:21:38;98380.97;;;12.63;100.00
34482;BME280;20720;48.886;9.388;2024-02-28T01:24:04;98384.44;;;12.64;100.00
34482;BME280;20720;48.886;9.388;2024-02-28T01:26:30;98384.50;;;12.44;100.00
34482;BME280;20720;48.886;9.388;2024-02-28T01:28:55;98382.84;;;12.56;100.00
34482;BME280;20720;48.886;9.388;2024-02-28T01:31:20;98387.31;;;12.56;100.00
34482;BME280;20720;48.886;9.388;2024-02-28T01:33:45;98389.34;;;12.54;100.00
34482;BME280;20720;48.886;9.388;2024-02-28T01:36:12;98382.75;;;12.32;100.00
34482;BME280;20720;48.886;9.388;2024-02-28T01:38:37;98387.94;;;11.48;100.00
34482;BME280;20720;48.886;9.388;2024-02-28T01:41:03;98390.75;;;11.79;100.00
34482;BME280;20720;48.886;9.388;2024-02-28T01:43:29;98392.47;;;12.24;99.52
34482;BME280;20720;48.886;9.388;2024-02-28T01:45:54;98393.03;;;12.40;98.06
34482;BME280;20720;48.886;9.388;2024-02-28T01:48:20;98394.28;;;12.30;99.08
34482;BME280;20720;48.886;9.388;2024-02-28T01:50:45;98406.47;;;12.32;100.00
34482;BME280;20720;48.886;9.388;2024-02-28T01:53:11;98401.19;;;12.32;98.37
34482;BME280;20720;48.886;9.388;2024-02-28T01:55:38;98405.69;;;12.18;100.00
34482;BME280;20720;48.886;9.388;2024-02-28T01:58:04;98409.75;;;12.20;100.00
34482;BME280;20720;48.886;9.388;2024-02-28T02:00:33;98406.16;;;11.95;100.00
34482;BME280;20720;48.886;9.388;2024-02-28T02:03:00;98405.25;;;12.27;100.00
34482;BME280;20720;48.886;9.388;2024-02-28T02:05:25;98406.53;;;12.05;100.00
34482;BME280;20720;48.886;9.388;2024-02-28T02:07:51;98406.94;;;12.09;100.00
34482;BME280;20720;48.886;9.388;2024-02-28T02:10:17;98415.09;;;11.75;100.00
34482;BME280;20720;48.886;9.388;2024-02-28T02:12:43;98413.19;;;12.14;100.00
34482;BME280;20720;48.886;9.388;2024-02-28T02:15:08;98412.16;;;12.15;100.00
34482;BME280;20720;48.886;9.388;2024-02-28T02:17:33;98416.59;;;12.21;100.00
34482;BME280;20720;48.886;9.388;2024-02-28T02:19:59;98422.31;;;12.18;100.00
34482;BME280;20720;48.886;9.388;2024-02-28T02:22:27;98417.47;;;11.30;100.00
34482;BME280;20720;48.886;9.388;2024-02-28T02:24:54;98422.34;;;11.40;100.00
34482;BME280;20720;48.886;9.388;2024-02-28T02:27:19;98424.19;;;11.79;100.00
34482;BME280;20720;48.886;9.388;2024-02-28T02:29:45;98425.69;;;12.32;99.16
34482;BME280;20720;48.886;9.388;2024-02-28T02:32:10;98428.41;;;11.60;100.00
34482;BME280;20720;48.886;9.388;2024-02-28T02:34:35;98431.44;;;12.03;100.00
34482;BME280;20720;48.886;9.388;2024-02-28T02:37:01;98437.16;;;11.67;100.00
34482;BME280;20720;48.886;9.388;2024-02-28T02:39:26;98443.41;;;11.66;100.00
34482;BME280;20720;48.886;9.388;2024-02-28T02:41:51;98448.91;;;11.84;100.00
34482;BME280;20720;48.886;9.388;2024-02-28T02:44:16;98446.63;;;12.14;99.78
34482;BME280;20720;48.886;9.388;2024-02-28T02:46:42;98451.28;;;11.92;100.00
34482;BME280;20720;48.886;9.388;2024-02-28T02:49:07;98453.69;;;12.13;97.48
34482;BME280;20720;48.886;9.388;2024-02-28T02:51:32;98455.09;;;12.29;96.70
34482;BME280;20720;48.886;9.388;2024-02-28T02:53:58;98462.19;;;12.28;96.48
34482;BME280;20720;48.886;9.388;2024-02-28T02:56:23;98459.06;;;12.51;94.96
34482;BME280;20720;48.886;9.388;2024-02-28T02:58:48;98462.72;;;12.50;95.38
34482;BME280;20720;48.886;9.388;2024-02-28T03:01:14;98465.19;;;12.32;97.03
34482;BME280;20720;48.886;9.388;2024-02-28T03:03:39;98468.00;;;12.44;96.23
34482;BME280;20720;48.886;9.388;2024-02-28T03:06:04;98463.38;;;12.32;96.29
34482;BME280;20720;48.886;9.388;2024-02-28T03:08:30;98471.31;;;12.19;98.73
34482;BME280;20720;48.886;9.388;2024-02-28T03:10:56;98476.59;;;12.26;98.05
34482;BME280;20720;48.886;9.388;2024-02-28T03:13:21;98485.34;;;11.94;99.50
34482;BME280;20720;48.886;9.388;2024-02-28T03:15:47;98485.13;;;12.08;100.00
34482;BME280;20720;48.886;9.388;2024-02-28T03:18:13;98494.75;;;10.28;100.00
34482;BME280;20720;48.886;9.388;2024-02-28T03:20:38;98499.56;;;11.13;100.00
34482;BME280;20720;48.886;9.388;2024-02-28T03:23:05;98498.75;;;10.59;100.00
34482;BME280;20720;48.886;9.388;2024-02-28T03:25:31;98498.94;;;11.11;100.00
34482;BME280;20720;48.886;9.388;2024-02-28T03:27:58;98500.66;;;11.31;100.00
34482;BME280;20720;48.886;9.388;2024-02-28T03:30:23;98510.25;;;11.91;100.00
34482;BME280;20720;48.886;9.388;2024-02-28T03:32:48;98507.19;;;12.20;99.72
34482;BME280;20720;48.886;9.388;2024-02-28T03:35:14;98516.66;;;11.50;100.00
34482;BME280;20720;48.886;9.388;2024-02-28T03:37:39;98515.47;;;10.45;100.00
34482;BME280;20720;48.886;9.388;2024-02-28T03:40:05;98517.75;;;10.26;100.00
34482;BME280;20720;48.886;9.388;2024-02-28T03:42:31;98527.91;;;10.70;100.00
34482;BME280;20720;48.886;9.388;2024-02-28T03:44:56;98525.88;;;10.66;100.00
34482;BME280;20720;48.886;9.388;2024-02-28T03:47:21;98523.41;;;10.58;100.00
34482;BME280;20720;48.886;9.388;2024-02-28T03:49:46;98528.19;;;10.13;100.00
34482;BME280;20720;48.886;9.388;2024-02-28T03:52:12;98537.38;;;10.65;100.00
34482;BME280;20720;48.886;9.388;2024-02-28T03:54:37;98534.69;;;10.52;100.00
34482;BME280;20720;48.886;9.388;2024-02-28T03:57:02;98536.84;;;10.76;100.00
34482;BME280;20720;48.886;9.388;2024-02-28T03:59:27;98542.41;;;10.94;100.00
34482;BME280;20720;48.886;9.388;2024-02-28T04:01:53;98545.34;;;10.43;100.00
34482;BME280;20720;48.886;9.388;2024-02-28T04:04:18;98545.66;;;10.06;100.00
34482;BME280;20720;48.886;9.388;2024-02-28T04:06:43;98544.72;;;10.41;100.00
34482;BME280;20720;48.886;9.388;2024-02-28T04:09:08;98548.44;;;9.77;100.00
34482;BME280;20720;48.886;9.388;2024-02-28T04:11:34;98545.03;;;10.04;100.00
34482;BME280;20720;48.886;9.388;2024-02-28T04:13:59;98547.47;;;10.61;100.00
34482;BME280;20720;48.886;9.388;2024-02-28T04:16:24;98548.25;;;10.55;100.00
34482;BME280;20720;48.886;9.388;2024-02-28T04:18:49;98544.88;;;10.33;100.00
34482;BME280;20720;48.886;9.388;2024-02-28T04:21:15;98555.38;;;10.33;100.00
34482;BME280;20720;48.886;9.388;2024-02-28T04:23:40;98553.91;;;10.03;100.00
34482;BME280;20720;48.886;9.388;2024-02-28T04:26:07;98553.78;;;11.14;100.00
34482;BME280;20720;48.886;9.388;2024-02-28T04:28:32;98555.69;;;11.33;100.00
34482;BME280;20720;48.886;9.388;2024-02-28T04:30:57;98545.66;;;11.69;100.00
34482;BME280;20720;48.886;9.388;2024-02-28T04:33:22;98553.56;;;11.69;100.00
34482;BME280;20720;48.886;9.388;2024-02-28T04:35:48;98561.66;;;11.74;100.00
34482;BME280;20720;48.886;9.388;2024-02-28T04:38:13;98554.50;;;11.49;100.00
34482;BME280;20720;48.886;9.388;2024-02-28T04:40:38;98557.31;;;11.47;100.00
34482;BME280;20720;48.886;9.388;2024-02-28T04:43:03;98555.91;;;11.45;100.00
34482;BME280;20720;48.886;9.388;2024-02-28T04:45:29;98553.94;;;11.60;100.00
34482;BME280;20720;48.886;9.388;2024-02-28T04:47:54;98560.06;;;11.86;100.00
34482;BME280;20720;48.886;9.388;2024-02-28T04:50:21;98564.13;;;11.95;100.00
34482;BME280;20720;48.886;9.388;2024-02-28T04:52:47;98566.94;;;11.74;100.00
34482;BME280;20720;48.886;9.388;2024-02-28T04:55:12;98568.13;;;11.65;100.00
34482;BME280;20720;48.886;9.388;2024-02-28T04:57:37;98572.63;;;11.84;100.00
34482;BME280;20720;48.886;9.388;2024-02-28T05:00:03;98573.84;;;12.01;100.00
34482;BME280;20720;48.886;9.388;2024-02-28T05:02:28;98569.78;;;11.92;100.00
34482;BME280;20720;48.886;9.388;2024-02-28T05:04:54;98574.22;;;11.72;100.00
34482;BME280;20720;48.886;9.388;2024-02-28T05:07:19;98572.63;;;11.91;100.00
34482;BME280;20720;48.886;9.388;2024-02-28T05:09:44;98569.97;;;11.91;100.00
34482;BME280;20720;48.886;9.388;2024-02-28T05:12:09;98571.41;;;11.93;100.00
34482;BME280;20720;48.886;9.388;2024-02-28T05:14:36;98582.47;;;11.56;100.00
34482;BME280;20720;48.886;9.388;2024-02-28T05:17:02;98580.44;;;11.58;100.00
34482;BME280;20720;48.886;9.388;2024-02-28T05:19:27;98582.97;;;11.32;100.00
34482;BME280;20720;48.886;9.388;2024-02-28T05:21:53;98586.22;;;11.34;100.00
34482;BME280;20720;48.886;9.388;2024-02-28T05:24:18;98577.56;;;11.47;100.00
34482;BME280;20720;48.886;9.388;2024-02-28T05:26:43;98583.00;;;11.45;100.00
34482;BME280;20720;48.886;9.388;2024-02-28T05:29:08;98583.97;;;11.91;100.00
34482;BME280;20720;48.886;9.388;2024-02-28T05:31:34;98577.09;;;11.90;100.00
34482;BME280;20720;48.886;9.388;2024-02-28T05:34:00;98584.38;;;12.01;100.00
34482;BME280;20720;48.886;9.388;2024-02-28T05:36:27;98580.31;;;11.92;100.00
34482;BME280;20720;48.886;9.388;2024-02-28T05:38:54;98586.81;;;11.90;100.00
34482;BME280;20720;48.886;9.388;2024-02-28T05:41:20;98586.78;;;11.96;100.00
34482;BME280;20720;48.886;9.388;2024-02-28T05:43:46;98590.03;;;11.85;100.00
34482;BME280;20720;48.886;9.388;2024-02-28T05:46:12;98591.66;;;11.73;100.00
34482;BME280;20720;48.886;9.388;2024-02-28T05:48:38;98600.94;;;11.69;100.00
34482;BME280;20720;48.886;9.388;2024-02-28T05:51:05;98601.75;;;11.76;100.00
34482;BME280;20720;48.886;9.388;2024-02-28T05:53:30;98605.91;;;11.51;100.00
34482;BME280;20720;48.886;9.388;2024-02-28T05:56:01;98613.00;;;11.57;100.00
34482;BME280;20720;48.886;9.388;2024-02-28T05:58:27;98613.44;;;11.54;100.00
34482;BME280;20720;48.886;9.388;2024-02-28T06:00:52;98618.25;;;11.51;100.00
34482;BME280;20720;48.886;9.388;2024-02-28T06:03:17;98622.88;;;11.42;100.00
34482;BME280;20720;48.886;9.388;2024-02-28T06:05:43;98619.38;;;11.22;100.00
34482;BME280;20720;48.886;9.388;2024-02-28T06:08:08;98625.56;;;11.49;100.00
34482;BME280;20720;48.886;9.388;2024-02-28T06:10:33;98633.50;;;11.21;100.00
34482;BME280;20720;48.886;9.388;2024-02-28T06:12:59;98640.84;;;11.32;100.00
34482;BME280;20720;48.886;9.388;2024-02-28T06:15:25;98636.75;;;11.23;100.00
34482;BME280;20720;48.886;9.388;2024-02-28T06:17:51;98642.16;;;11.56;100.00
34482;BME280;20720;48.886;9.388;2024-02-28T06:20:16;98641.50;;;11.41;100.00
34482;BME280;20720;48.886;9.388;2024-02-28T06:22:41;98647.44;;;11.62;100.00
34482;BME280;20720;48.886;9.388;2024-02-28T06:25:07;98640.88;;;11.38;100.00
34482;BME280;20720;48.886;9.388;2024-02-28T06:27:38;98653.88;;;11.47;100.00
34482;BME280;20720;48.886;9.388;2024-02-28T06:30:04;98657.84;;;11.36;100.00
34482;BME280;20720;48.886;9.388;2024-02-28T06:32:30;98662.41;;;11.55;100.00
34482;BME280;20720;48.886;9.388;2024-02-28T06:34:55;98670.44;;;11.47;100.00
34482;BME280;20720;48.886;9.388;2024-02-28T06:37:20;98669.13;;;11.23;100.00
34482;BME280;20720;48.886;9.388;2024-02-28T06:39:46;98678.47;;;11.26;100.00
34482;BME280;20720;48.886;9.388;2024-02-28T06:42:11;98674.34;;;11.58;100.00
34482;BME280;20720;48.886;9.388;2024-02-28T06:44:36;98676.78;;;11.59;100.00
34482;BME280;20720;48.886;9.388;2024-02-28T06:47:01;98675.47;;;11.76;100.00
34482;BME280;20720;48.886;9.388;2024-02-28T06:49:27;98674.09;;;11.46;100.00
34482;BME280;20720;48.886;9.388;2024-02-28T06:51:52;98681.44;;;11.57;100.00
34482;BME280;20720;48.886;9.388;2024-02-28T06:54:18;98689.63;;;11.75;100.00
34482;BME280;20720;48.886;9.388;2024-02-28T06:56:43;98690.31;;;11.50;100.00
34482;BME280;20720;48.886;9.388;2024-02-28T06:59:10;98687.47;;;11.51;100.00
34482;BME280;20720;48.886;9.388;2024-02-28T07:01:35;98693.47;;;11.79;100.00
34482;BME280;20720;48.886;9.388;2024-02-28T07:04:00;98689.63;;;11.75;100.00
34482;BME280;20720;48.886;9.388;2024-02-28T07:06:25;98689.31;;;11.98;100.00
34482;BME280;20720;48.886;9.388;2024-02-28T07:08:51;98686.03;;;11.89;100.00
34482;BME280;20720;48.886;9.388;2024-02-28T07:11:16;98690.31;;;11.50;100.00
34482;BME280;20720;48.886;9.388;2024-02-28T07:13:41;98686.22;;;11.41;100.00
34482;BME280;20720;48.886;9.388;2024-02-28T07:16:06;98705.19;;;11.70;100.00
34482;BME280;20720;48.886;9.388;2024-02-28T07:18:32;98704.00;;;11.79;100.00
34482;BME280;20720;48.886;9.388;2024-02-28T07:20:57;98707.94;;;11.56;100.00
34482;BME280;20720;48.886;9.388;2024-02-28T07:23:23;98711.53;;;11.89;100.00
34482;BME280;20720;48.886;9.388;2024-02-28T07:25:48;98720.38;;;11.68;100.00
34482;BME280;20720;48.886;9.388;2024-02-28T07:28:13;98725.63;;;11.68;100.00
34482;BME280;20720;48.886;9.388;2024-02-28T07:30:38;98726.47;;;11.75;100.00
34482;BME280;20720;48.886;9.388;2024-02-28T07:33:05;98728.56;;;11.86;100.00
34482;BME280;20720;48.886;9.388;2024-02-28T07:35:30;98735.88;;;11.97;100.00
34482;BME280;20720;48.886;9.388;2024-02-28T07:37:56;98738.63;;;11.76;100.00
34482;BME280;20720;48.886;9.388;2024-02-28T07:40:21;98734.97;;;11.71;100.00
34482;BME280;20720;48.886;9.388;2024-02-28T07:42:46;98742.34;;;11.88;100.00
34482;BME280;20720;48.886;9.388;2024-02-28T07:45:11;98737.91;;;12.02;100.00
34482;BME280;20720;48.886;9.388;2024-02-28T07:47:37;98744.47;;;11.72;100.00
34482;BME280;20720;48.886;9.388;2024-02-28T07:50:02;98749.44;;;11.60;100.00
34482;BME280;20720;48.886;9.388;2024-02-28T07:52:28;98754.72;;;11.60;100.00
34482;BME280;20720;48.886;9.388;2024-02-28T07:54:53;98759.28;;;11.79;100.00
34482;BME280;20720;48.886;9.388;2024-02-28T07:57:18;98765.38;;;11.73;100.00
34482;BME280;20720;48.886;9.388;2024-02-28T07:59:44;98763.72;;;11.72;100.00
34482;BME280;20720;48.886;9.388;2024-02-28T08:02:09;98771.84;;;11.77;100.00
34482;BME280;20720;48.886;9.388;2024-02-28T08:04:37;98774.66;;;11.69;100.00
34482;BME280;20720;48.886;9.388;2024-02-28T08:07:02;98773.25;;;11.46;100.00
34482;BME280;20720;48.886;9.388;2024-02-28T08:09:28;98770.34;;;11.62;100.00
34482;BME280;20720;48.886;9.388;2024-02-28T08:11:53;98770.06;;;11.91;100.00
34482;BME280;20720;48.886;9.388;2024-02-28T08:14:19;98774.19;;;11.31;100.00
34482;BME280;20720;48.886;9.388;2024-02-28T08:16:44;98777.69;;;11.45;100.00
34482;BME280;20720;48.886;9.388;2024-02-28T08:19:09;98776.84;;;11.38;100.00
34482;BME280;20720;48.886;9.388;2024-02-28T08:21:34;98781.81;;;11.54;100.00
34482;BME280;20720;48.886;9.388;2024-02-28T08:24:00;98781.31;;;11.72;100.00
34482;BME280;20720;48.886;9.388;2024-02-28T08:26:27;98784.03;;;11.85;100.00
34482;BME280;20720;48.886;9.388;2024-02-28T08:28:52;98785.91;;;11.63;100.00
34482;BME280;20720;48.886;9.388;2024-02-28T08:31:18;98792.53;;;11.80;100.00
34482;BME280;20720;48.886;9.388;2024-02-28T08:33:43;98793.34;;;11.87;100.00
34482;BME280;20720;48.886;9.388;2024-02-28T08:36:08;98787.78;;;12.03;100.00
34482;BME280;20720;48.886;9.388;2024-02-28T08:38:33;98786.97;;;12.09;100.00
34482;BME280;20720;48.886;9.388;2024-02-28T08:40:59;98791.25;;;11.70;100.00
34482;BME280;20720;48.886;9.388;2024-02-28T08:43:25;98785.91;;;11.63;100.00
34482;BME280;20720;48.886;9.388;2024-02-28T08:45:50;98791.16;;;11.91;100.00
34482;BME280;20720;48.886;9.388;2024-02-28T08:48:16;98786.06;;;11.55;100.00
34482;BME280;20720;48.886;9.388;2024-02-28T08:50:42;98792.84;;;12.05;100.00
34482;BME280;20720;48.886;9.388;2024-02-28T08:53:07;98794.53;;;11.78;100.00
34482;BME280;20720;48.886;9.388;2024-02-28T08:55:33;98794.19;;;11.88;100.00
34482;BME280;20720;48.886;9.388;2024-02-28T08:57:58;98795.09;;;12.14;100.00
34482;BME280;20720;48.886;9.388;2024-02-28T09:00:23;98799.09;;;12.04;100.00
34482;BME280;20720;48.886;9.388;2024-02-28T09:02:48;98799.41;;;12.42;98.90
34482;BME280;20720;48.886;9.388;2024-02-28T09:05:14;98794.34;;;12.34;98.56
34482;BME280;20720;48.886;9.388;2024-02-28T09:07:39;98795.69;;;12.10;99.44
34482;BME280;20720;48.886;9.388;2024-02-28T09:10:04;98802.28;;;11.93;100.00
34482;BME280;20720;48.886;9.388;2024-02-28T09:12:31;98796.88;;;12.01;100.00
34482;BME280;20720;48.886;9.388;2024-02-28T09:14:56;98805.16;;;12.58;96.76
34482;BME280;20720;48.886;9.388;2024-02-28T09:17:21;98800.91;;;11.63;100.00
34482;BME280;20720;48.886;9.388;2024-02-28T09:19:47;98794.94;;;12.22;99.32
34482;BME280;20720;48.886;9.388;2024-02-28T09:22:12;98805.50;;;12.42;96.09
34482;BME280;20720;48.886;9.388;2024-02-28T09:24:37;98800.69;;;12.72;92.71
34482;BME280;20720;48.886;9.388;2024-02-28T09:27:03;98799.69;;;11.99;96.48
34482;BME280;20720;48.886;9.388;2024-02-28T09:29:28;98807.03;;;10.45;100.00
34482;BME280;20720;48.886;9.388;2024-02-28T09:31:53;98801.72;;;11.08;100.00
34482;BME280;20720;48.886;9.388;2024-02-28T09:34:19;98804.56;;;11.96;100.00
34482;BME280;20720;48.886;9.388;2024-02-28T09:36:45;98809.22;;;12.00;97.46
34482;BME280;20720;48.886;9.388;2024-02-28T09:39:11;98809.47;;;12.05;97.24
34482;BME280;20720;48.886;9.388;2024-02-28T09:41:38;98809.47;;;12.05;98.48
34482;BME280;20720;48.886;9.388;2024-02-28T09:44:06;98809.25;;;12.13;98.01
34482;BME280;20720;48.886;9.388;2024-02-28T09:46:32;98809.78;;;12.50;93.52
34482;BME280;20720;48.886;9.388;2024-02-28T09:49:01;98803.53;;;10.08;100.00
34482;BME280;20720;48.886;9.388;2024-02-28T09:51:28;98812.97;;;10.17;100.00
34482;BME280;20720;48.886;9.388;2024-02-28T09:53:53;98814.53;;;10.12;100.00
34482;BME280;20720;48.886;9.388;2024-02-28T09:56:19;98819.00;;;10.32;100.00
34482;BME280;20720;48.886;9.388;2024-02-28T09:58:45;98819.91;;;10.61;100.00
34482;BME280;20720;48.886;9.388;2024-02-28T10:01:11;98815.16;;;10.14;100.00
34482;BME280;20720;48.886;9.388;2024-02-28T10:03:37;98820.03;;;9.44;100.00
34482;BME280;20720;48.886;9.388;2024-02-28T10:06:04;98822.88;;;10.36;100.00
34482;BME280;20720;48.886;9.388;2024-02-28T10:08:29;98821.91;;;9.50;100.00
34482;BME280;20720;48.886;9.388;2024-02-28T10:10:56;98819.44;;;10.36;100.00
34482;BME280;20720;48.886;9.388;2024-02-28T10:13:23;98816.16;;;9.84;100.00
34482;BME280;20720;48.886;9.388;2024-02-28T10:15:49;98819.47;;;10.78;100.00
34482;BME280;20720;48.886;9.388;2024-02-28T10:18:14;98831.69;;;10.00;100.00
34482;BME280;20720;48.886;9.388;2024-02-28T10:20:39;98827.22;;;11.35;100.00
34482;BME280;20720;48.886;9.388;2024-02-28T10:23:05;98832.03;;;10.40;100.00
34482;BME280;20720;48.886;9.388;2024-02-28T10:25:32;98838.66;;;11.76;100.00
34482;BME280;20720;48.886;9.388;2024-02-28T10:28:01;98836.47;;;11.80;100.00
34482;BME280;20720;48.886;9.388;2024-02-28T10:30:27;98845.84;;;11.61;100.00
34482;BME280;20720;48.886;9.388;2024-02-28T10:32:52;98851.78;;;11.42;100.00
34482;BME280;20720;48.886;9.388;2024-02-28T10:35:18;98850.09;;;11.96;99.26
34482;BME280;20720;48.886;9.388;2024-02-28T10:37:44;98844.66;;;12.52;94.80
34482;BME280;20720;48.886;9.388;2024-02-28T10:40:12;98855.03;;;10.38;100.00
34482;BME280;20720;48.886;9.388;2024-02-28T10:42:39;98858.63;;;10.52;100.00
34482;BME280;20720;48.886;9.388;2024-02-28T10:45:07;98867.19;;;11.73;100.00
34482;BME280;20720;48.886;9.388;2024-02-28T10:47:38;98863.13;;;12.45;95.22
34482;BME280;20720;48.886;9.388;2024-02-28T10:50:03;98869.91;;;10.88;100.00
34482;BME280;20720;48.886;9.388;2024-02-28T10:52:32;98881.34;;;10.60;100.00
34482;BME280;20720;48.886;9.388;2024-02-28T10:54:58;98872.03;;;11.69;100.00
34482;BME280;20720;48.886;9.388;2024-02-28T10:57:26;98888.47;;;11.01;100.00
34482;BME280;20720;48.886;9.388;2024-02-28T10:59:53;98887.72;;;12.18;98.44
34482;BME280;20720;48.886;9.388;2024-02-28T11:02:19;98885.06;;;12.18;97.48
34482;BME280;20720;48.886;9.388;2024-02-28T11:04:45;98889.06;;;12.48;93.40
34482;BME280;20720;48.886;9.388;2024-02-28T11:07:10;98882.38;;;12.52;91.95
34482;BME280;20720;48.886;9.388;2024-02-28T11:09:36;98880.09;;;13.03;88.55
34482;BME280;20720;48.886;9.388;2024-02-28T11:12:04;98876.41;;;12.97;88.55
34482;BME280;20720;48.886;9.388;2024-02-28T11:14:29;98874.84;;;13.16;87.22
34482;BME280;20720;48.886;9.388;2024-02-28T11:17:02;98884.19;;;13.25;85.91
34482;BME280;20720;48.886;9.388;2024-02-28T11:19:29;98882.94;;;13.08;86.27
34482;BME280;20720;48.886;9.388;2024-02-28T11:21:56;98883.78;;;13.15;86.10
34482;BME280;20720;48.886;9.388;2024-02-28T11:24:32;98897.94;;;12.94;87.67
34482;BME280;20720;48.886;9.388;2024-02-28T11:26:58;98890.56;;;12.77;88.58
34482;BME280;20720;48.886;9.388;2024-02-28T11:29:27;98888.94;;;12.76;88.44
34482;BME280;20720;48.886;9.388;2024-02-28T11:31:56;98887.03;;;13.23;85.75
34482;BME280;20720;48.886;9.388;2024-02-28T11:34:22;98890.50;;;13.24;85.13
34482;BME280;20720;48.886;9.388;2024-02-28T11:36:48;98892.31;;;13.43;84.33
34482;BME280;20720;48.886;9.388;2024-02-28T11:39:14;98892.69;;;13.14;84.91
34482;BME280;20720;48.886;9.388;2024-02-28T11:41:40;98895.97;;;13.29;84.02
34482;BME280;20720;48.886;9.388;2024-02-28T11:44:05;98888.41;;;13.00;85.88
34482;BME280;20720;48.886;9.388;2024-02-28T11:46:31;98892.84;;;12.86;86.26
34482;BME280;20720;48.886;9.388;2024-02-28T11:48:56;98891.69;;;12.48;88.75
34482;BME280;20720;48.886;9.388;2024-02-28T11:51:22;98890.75;;;12.21;90.51
34482;BME280;20720;48.886;9.388;2024-02-28T11:53:48;98896.09;;;11.94;89.99
34482;BME280;20720;48.886;9.388;2024-02-28T11:56:13;98897.38;;;12.45;89.14
34482;BME280;20720;48.886;9.388;2024-02-28T11:58:52;98892.00;;;11.64;96.26
34482;BME280;20720;48.886;9.388;2024-02-28T12:01:18;98892.84;;;12.32;89.44
34482;BME280;20720;48.886;9.388;2024-02-28T12:03:46;98890.75;;;11.81;95.79
34482;BME280;20720;48.886;9.388;2024-02-28T12:06:12;98890.25;;;13.06;87.83
34482;BME280;20720;48.886;9.388;2024-02-28T12:08:37;98879.31;;;13.22;84.56
34482;BME280;20720;48.886;9.388;2024-02-28T12:11:07;98886.25;;;13.49;83.04
34482;BME280;20720;48.886;9.388;2024-02-28T12:13:33;98875.44;;;13.57;82.09
34482;BME280;20720;48.886;9.388;2024-02-28T12:15:58;98884.19;;;13.32;82.76
34482;BME280;20720;48.886;9.388;2024-02-28T12:18:25;98880.28;;;13.80;81.45
34482;BME280;20720;48.886;9.388;2024-02-28T12:20:52;98869.16;;;13.58;81.26
34482;BME280;20720;48.886;9.388;2024-02-28T12:23:17;98880.31;;;13.21;82.89
34482;BME280;20720;48.886;9.388;2024-02-28T12:25:43;98874.88;;;13.23;84.46
34482;BME280;20720;48.886;9.388;2024-02-28T12:28:08;98873.03;;;13.43;82.93
34482;BME280;20720;48.886;9.388;2024-02-28T12:30:39;98868.75;;;13.29;83.98
34482;BME280;20720;48.886;9.388;2024-02-28T12:33:06;98872.44;;;13.34;83.51
34482;BME280;20720;48.886;9.388;2024-02-28T12:35:31;98870.16;;;12.32;85.60
34482;BME280;20720;48.886;9.388;2024-02-28T12:37:56;98867.72;;;12.30;88.86
34482;BME280;20720;48.886;9.388;2024-02-28T12:40:22;98865.88;;;12.30;89.48
34482;BME280;20720;48.886;9.388;2024-02-28T12:42:48;98868.34;;;13.12;85.34
34482;BME280;20720;48.886;9.388;2024-02-28T12:45:13;98861.88;;;13.47;82.96